createdAt,value
2023-04-01T00:00:53.415Z,96724.41
2023-04-01T00:01:56.442Z,96732.97
2023-04-01T00:02:59.598Z,96731.53
2023-04-01T00:04:03.282Z,96722.63
2023-04-01T00:05:06.929Z,96720.75
2023-04-01T00:06:12.543Z,96717.16
2023-04-01T00:07:15.301Z,96724.53
2023-04-01T00:08:18.595Z,96730.47
2023-04-01T00:09:21.760Z,96734.41
2023-04-01T00:10:24.725Z,96733.56
2023-04-01T00:11:28.459Z,96739.87
2023-04-01T00:12:31.495Z,96736.53
2023-04-01T00:13:34.399Z,96739.37
2023-04-01T00:14:38.364Z,96733.78
2023-04-01T00:15:41.124Z,96729.03
2023-04-01T00:16:43.966Z,96726.66
2023-04-01T00:17:46.880Z,96727.84
2023-04-01T00:18:51.260Z,96731.87
2023-04-01T00:19:56.809Z,96727.72
2023-04-01T00:20:59.574Z,96733.31
2023-04-01T00:22:02.562Z,96729.38
2023-04-01T00:23:06.425Z,96730.22
2023-04-01T00:24:09.061Z,96730.34
2023-04-01T00:25:12.026Z,96730.72
2023-04-01T00:26:15.901Z,96721.91
2023-04-01T00:27:18.927Z,96725.47
2023-04-01T00:28:22.302Z,96723.22
2023-04-01T00:29:25.748Z,96720.25
2023-04-01T00:30:29.107Z,96718.13
2023-04-01T00:31:32.157Z,96724.91
2023-04-01T00:32:36.576Z,96723.56
2023-04-01T00:33:42.000Z,96725.00
2023-04-01T00:34:45.815Z,96724.28
2023-04-01T00:35:48.838Z,96721.78
2023-04-01T00:36:53.650Z,96713.34
2023-04-01T00:37:57.010Z,96716.91
2023-04-01T00:39:03.169Z,96714.06
2023-04-01T00:40:07.923Z,96719.16
2023-04-01T00:41:16.015Z,96717.03
2023-04-01T00:42:19.367Z,96718.72
2023-04-01T00:43:23.083Z,96713.25
2023-04-01T00:44:29.511Z,96717.75
2023-04-01T00:45:39.407Z,96712.91
2023-04-01T00:46:42.403Z,96711.22
2023-04-01T00:47:45.727Z,96709.19
2023-04-01T00:48:54.160Z,96708.34
2023-04-01T00:49:57.123Z,96717.28
2023-04-01T00:51:06.605Z,96715.03
2023-04-01T00:52:14.111Z,96711.09
2023-04-01T00:53:20.219Z,96711.81
2023-04-01T00:54:25.785Z,96708.25
2023-04-01T00:55:33.326Z,96709.56
2023-04-01T00:56:38.224Z,96703.38
2023-04-01T00:57:43.657Z,96705.28
2023-04-01T00:58:52.249Z,96713.38
2023-04-01T00:59:56.963Z,96716.81
2023-04-01T01:01:01.249Z,96713.38
2023-04-01T01:02:07.639Z,96714.91
2023-04-01T01:03:10.825Z,96717.16
2023-04-01T01:04:28.504Z,96716.56
2023-04-01T01:05:58.605Z,96718.00
2023-04-01T01:07:19.280Z,96715.03
2023-04-01T01:08:28.039Z,96711.00
2023-04-01T01:09:40.657Z,96717.28
2023-04-01T01:10:49.787Z,96709.66
2023-04-01T01:12:17.157Z,96715.13
2023-04-01T01:13:37.504Z,96714.06
2023-04-01T01:15:01.321Z,96713.34
2023-04-01T01:16:06.940Z,96714.78
2023-04-01T01:17:40.053Z,96713.34
2023-04-01T01:19:18.130Z,96704.34
2023-04-01T01:20:58.600Z,96707.28
2023-04-01T01:22:54.201Z,96700.50
2023-04-01T01:24:09.925Z,96706.56
2023-04-01T01:25:34.836Z,96703.38
2023-04-01T01:27:04.216Z,96701.94
2023-04-01T01:28:09.596Z,96700.50
2023-04-01T01:29:49.895Z,96702.53
2023-04-01T01:31:22.200Z,96710.03
2023-04-01T01:32:50.012Z,96704.44
2023-04-01T01:34:13.394Z,96707.87
2023-04-01T01:35:32.294Z,96710.03
2023-04-01T01:36:38.789Z,96707.53
2023-04-01T01:37:44.602Z,96702.53
2023-04-01T01:38:49.795Z,96705.97
2023-04-01T01:40:00.105Z,96705.88
2023-04-01T01:41:05.836Z,96708.34
2023-04-01T01:42:13.261Z,96704.09
2023-04-01T01:43:22.115Z,96712.28
2023-04-01T01:44:27.678Z,96715.63
2023-04-01T01:45:33.585Z,96700.53
2023-04-01T01:46:40.159Z,96705.28
2023-04-01T01:47:44.191Z,96707.31
2023-04-01T01:48:49.056Z,96703.16
2023-04-01T01:49:55.679Z,96704.47
2023-04-01T01:50:59.917Z,96706.59
2023-04-01T01:52:03.051Z,96702.34
2023-04-01T01:53:09.314Z,96701.13
2023-04-01T01:54:17.567Z,96702.69
2023-04-01T01:55:28.779Z,96707.91
2023-04-01T01:56:34.075Z,96706.25
2023-04-01T01:57:40.493Z,96703.28
2023-04-01T01:58:51.261Z,96706.00
2023-04-01T02:00:00.415Z,96699.34
2023-04-01T02:01:10.155Z,96707.91
2023-04-01T02:02:15.986Z,96701.03
2023-04-01T02:03:22.041Z,96701.13
2023-04-01T02:04:25.412Z,96702.56
2023-04-01T02:05:32.151Z,96693.75
2023-04-01T02:06:40.669Z,96700.53
2023-04-01T02:07:48.366Z,96700.69
2023-04-01T02:08:55.721Z,96699.22
2023-04-01T02:09:59.227Z,96705.28
2023-04-01T02:11:07.561Z,96702.19
2023-04-01T02:12:14.330Z,96700.06
2023-04-01T02:13:33.690Z,96695.06
2023-04-01T02:14:44.060Z,96692.84
2023-04-01T02:15:50.063Z,96693.41
2023-04-01T02:16:59.173Z,96699.59
2023-04-01T02:18:03.660Z,96702.44
2023-04-01T02:19:09.463Z,96697.00
2023-04-01T02:20:18.157Z,96693.53
2023-04-01T02:21:23.703Z,96693.75
2023-04-01T02:22:40.572Z,96680.59
2023-04-01T02:23:44.116Z,96686.78
2023-04-01T02:24:47.543Z,96686.06
2023-04-01T02:25:50.814Z,96679.16
2023-04-01T02:26:53.860Z,96690.31
2023-04-01T02:28:00.541Z,96673.34
2023-04-01T02:29:06.934Z,96672.47
2023-04-01T02:30:11.324Z,96673.22
2023-04-01T02:31:16.141Z,96677.25
2023-04-01T02:32:21.352Z,96682.00
2023-04-01T02:33:24.986Z,96678.47
2023-04-01T02:34:28.351Z,96679.75
2023-04-01T02:35:31.839Z,96669.53
2023-04-01T02:36:37.415Z,96671.31
2023-04-01T02:37:44.679Z,96672.50
2023-04-01T02:38:49.177Z,96663.50
2023-04-01T02:39:52.295Z,96665.97
2023-04-01T02:41:01.991Z,96667.66
2023-04-01T02:42:05.156Z,96663.59
2023-04-01T02:43:08.063Z,96662.78
2023-04-01T02:44:12.298Z,96670.03
2023-04-01T02:45:16.049Z,96667.91
2023-04-01T02:46:19.087Z,96668.00
2023-04-01T02:47:22.153Z,96667.41
2023-04-01T02:48:25.461Z,96672.88
2023-04-01T02:49:28.825Z,96670.03
2023-04-01T02:50:31.780Z,96672.63
2023-04-01T02:51:35.695Z,96667.16
2023-04-01T02:52:38.968Z,96678.34
2023-04-01T02:53:41.972Z,96681.66
2023-04-01T02:54:44.835Z,96675.34
2023-04-01T02:55:47.907Z,96678.69
2023-04-01T02:56:50.796Z,96676.09
2023-04-01T02:57:53.714Z,96673.22
2023-04-01T02:58:56.653Z,96677.87
2023-04-01T02:59:59.973Z,96676.31
2023-04-01T03:01:02.918Z,96682.47
2023-04-01T03:02:06.053Z,96678.22
2023-04-01T03:03:10.232Z,96679.41
2023-04-01T03:04:13.438Z,96676.66
2023-04-01T03:05:16.666Z,96680.72
2023-04-01T03:06:19.880Z,96683.09
2023-04-01T03:07:22.867Z,96684.16
2023-04-01T03:08:26.056Z,96683.19
2023-04-01T03:09:29.854Z,96682.25
2023-04-01T03:10:33.231Z,96679.88
2023-04-01T03:11:36.767Z,96681.41
2023-04-01T03:12:39.726Z,96682.62
2023-04-01T03:13:42.726Z,96676.94
2023-04-01T03:14:45.642Z,96675.59
2023-04-01T03:15:48.575Z,96673.47
2023-04-01T03:16:51.607Z,96667.31
2023-04-01T03:17:54.743Z,96661.59
2023-04-01T03:19:00.256Z,96676.69
2023-04-01T03:20:06.081Z,96676.78
2023-04-01T03:21:21.203Z,96684.16
2023-04-01T03:22:24.212Z,96680.63
2023-04-01T03:23:27.283Z,96690.59
2023-04-01T03:24:30.221Z,96683.22
2023-04-01T03:25:33.308Z,96691.53
2023-04-01T03:26:36.213Z,96692.72
2023-04-01T03:27:39.594Z,96690.34
2023-04-01T03:28:42.549Z,96688.56
2023-04-01T03:29:45.627Z,96689.72
2023-04-01T03:30:49.014Z,96688.41
2023-04-01T03:31:52.026Z,96696.50
2023-04-01T03:32:55.164Z,96690.22
2023-04-01T03:33:58.126Z,96691.50
2023-04-01T03:35:01.191Z,96691.28
2023-04-01T03:36:07.804Z,96696.03
2023-04-01T03:37:10.989Z,96694.59
2023-04-01T03:38:13.890Z,96694.13
2023-04-01T03:39:20.119Z,96688.56
2023-04-01T03:40:23.603Z,96690.31
2023-04-01T03:41:26.805Z,96695.78
2023-04-01T03:42:32.154Z,96701.34
2023-04-01T03:43:35.259Z,96693.16
2023-04-01T03:44:38.169Z,96708.59
2023-04-01T03:45:52.454Z,96702.06
2023-04-01T03:46:55.378Z,96704.66
2023-04-01T03:47:58.579Z,96709.53
2023-04-01T03:49:01.630Z,96704.78
2023-04-01T03:50:05.702Z,96704.31
2023-04-01T03:51:09.755Z,96706.91
2023-04-01T03:52:13.105Z,96700.50
2023-04-01T03:53:16.516Z,96704.53
2023-04-01T03:54:21.317Z,96702.13
2023-04-01T03:55:24.140Z,96700.47
2023-04-01T03:56:27.603Z,96704.75
2023-04-01T03:57:33.044Z,96706.06
2023-04-01T03:58:36.787Z,96708.66
2023-04-01T03:59:39.851Z,96707.38
2023-04-01T04:00:42.800Z,96715.66
2023-04-01T04:01:49.156Z,96705.22
2023-04-01T04:02:52.754Z,96711.62
2023-04-01T04:03:55.797Z,96716.28
2023-04-01T04:04:58.612Z,96715.22
2023-04-01T04:06:04.654Z,96717.25
2023-04-01T04:07:07.564Z,96714.13
2023-04-01T04:08:10.603Z,96718.63
2023-04-01T04:09:13.553Z,96714.59
2023-04-01T04:10:16.561Z,96710.81
2023-04-01T04:11:21.230Z,96707.47
2023-04-01T04:12:24.117Z,96705.81
2023-04-01T04:13:27.201Z,96701.28
2023-04-01T04:14:30.102Z,96705.19
2023-04-01T04:15:33.276Z,96704.09
2023-04-01T04:16:37.838Z,96700.41
2023-04-01T04:17:40.802Z,96700.75
2023-04-01T04:18:44.383Z,96703.63
2023-04-01T04:19:47.782Z,96708.81
2023-04-01T04:20:52.603Z,96704.28
2023-04-01T04:21:55.579Z,96702.72
2023-04-01T04:22:58.793Z,96708.63
2023-04-01T04:24:02.733Z,96709.09
2023-04-01T04:25:06.158Z,96714.41
2023-04-01T04:26:12.369Z,96707.53
2023-04-01T04:27:15.656Z,96717.00
2023-04-01T04:28:19.028Z,96708.72
2023-04-01T04:29:24.148Z,96709.28
2023-04-01T04:30:27.076Z,96705.84
2023-04-01T04:31:30.182Z,96703.97
2023-04-01T04:32:33.558Z,96701.25
2023-04-01T04:33:37.324Z,96704.69
2023-04-01T04:34:40.311Z,96701.25
2023-04-01T04:35:43.242Z,96699.81
2023-04-01T04:36:46.766Z,96700.66
2023-04-01T04:37:49.687Z,96696.50
2023-04-01T04:38:52.732Z,96702.66
2023-04-01T04:39:55.692Z,96700.53
2023-04-01T04:40:58.549Z,96696.97
2023-04-01T04:42:01.387Z,96700.66
2023-04-01T04:43:04.888Z,96698.75
2023-04-01T04:44:07.858Z,96692.72
2023-04-01T04:45:11.349Z,96694.16
2023-04-01T04:46:14.331Z,96695.47
2023-04-01T04:47:17.393Z,96699.63
2023-04-01T04:48:21.489Z,96698.69
2023-04-01T04:49:24.527Z,96702.59
2023-04-01T04:50:27.727Z,96694.28
2023-04-01T04:51:30.817Z,96699.16
2023-04-01T04:52:34.326Z,96701.75
2023-04-01T04:53:37.165Z,96701.63
2023-04-01T04:54:40.184Z,96697.00
2023-04-01T04:55:48.651Z,96699.88
2023-04-01T04:56:54.221Z,96698.44
2023-04-01T04:57:57.250Z,96699.88
2023-04-01T04:59:00.848Z,96700.00
2023-04-01T05:00:04.203Z,96699.28
2023-04-01T05:01:12.586Z,96692.41
2023-04-01T05:02:15.740Z,96691.94
2023-04-01T05:03:19.532Z,96699.28
2023-04-01T05:04:22.628Z,96698.13
2023-04-01T05:05:25.737Z,96690.75
2023-04-01T05:06:30.852Z,96695.16
2023-04-01T05:07:34.981Z,96689.00
2023-04-01T05:08:40.113Z,96692.00
2023-04-01T05:09:43.270Z,96700.87
2023-04-01T05:10:47.616Z,96703.72
2023-04-01T05:11:50.918Z,96699.84
2023-04-01T05:12:53.979Z,96701.97
2023-04-01T05:13:57.007Z,96702.22
2023-04-01T05:14:59.898Z,96705.78
2023-04-01T05:16:03.265Z,96704.84
2023-04-01T05:17:11.235Z,96704.28
2023-04-01T05:18:14.314Z,96701.06
2023-04-01T05:19:17.309Z,96706.66
2023-04-01T05:20:20.627Z,96698.13
2023-04-01T05:21:23.788Z,96706.91
2023-04-01T05:22:27.282Z,96703.00
2023-04-01T05:23:32.149Z,96710.41
2023-04-01T05:24:35.269Z,96707.66
2023-04-01T05:25:39.636Z,96704.09
2023-04-01T05:26:42.572Z,96711.22
2023-04-01T05:27:46.023Z,96712.44
2023-04-01T05:28:48.974Z,96711.47
2023-04-01T05:29:52.711Z,96716.22
2023-04-01T05:30:56.045Z,96709.34
2023-04-01T05:31:59.109Z,96711.56
2023-04-01T05:33:02.360Z,96711.13
2023-04-01T05:34:05.280Z,96716.81
2023-04-01T05:35:08.613Z,96717.66
2023-04-01T05:36:17.478Z,96722.66
2023-04-01T05:37:21.015Z,96716.47
2023-04-01T05:38:24.237Z,96720.72
2023-04-01T05:39:27.477Z,96719.56
2023-04-01T05:40:31.200Z,96719.78
2023-04-01T05:41:39.624Z,96723.34
2023-04-01T05:42:42.599Z,96719.44
2023-04-01T05:43:45.470Z,96732.63
2023-04-01T05:44:48.386Z,96725.38
2023-04-01T05:45:51.289Z,96727.66
2023-04-01T05:46:54.210Z,96723.59
2023-04-01T05:47:57.269Z,96725.97
2023-04-01T05:49:00.340Z,96731.09
2023-04-01T05:50:03.205Z,96731.19
2023-04-01T05:51:06.527Z,96726.56
2023-04-01T05:52:09.674Z,96720.59
2023-04-01T05:53:12.912Z,96717.41
2023-04-01T05:54:15.907Z,96721.66
2023-04-01T05:55:18.962Z,96719.06
2023-04-01T05:56:22.023Z,96722.75
2023-04-01T05:57:24.963Z,96724.88
2023-04-01T05:58:27.902Z,96724.59
2023-04-01T05:59:32.683Z,96716.03
2023-04-01T06:00:36.149Z,96714.84
2023-04-01T06:01:39.961Z,96712.47
2023-04-01T06:02:44.196Z,96713.97
2023-04-01T06:03:47.677Z,96718.22
2023-04-01T06:04:51.292Z,96708.72
2023-04-01T06:05:54.345Z,96710.97
2023-04-01T06:06:57.581Z,96717.94
2023-04-01T06:08:07.137Z,96722.25
2023-04-01T06:09:16.614Z,96719.25
2023-04-01T06:10:21.892Z,96724.84
2023-04-01T06:11:24.958Z,96721.41
2023-04-01T06:12:57.324Z,96720.09
2023-04-01T06:14:21.703Z,96722.44
2023-04-01T06:15:37.868Z,96715.75
2023-04-01T06:16:53.918Z,96707.66
2023-04-01T06:18:11.701Z,96706.34
2023-04-01T06:19:41.436Z,96709.41
2023-04-01T06:21:06.962Z,96717.16
2023-04-01T06:22:31.218Z,96711.28
2023-04-01T06:23:58.679Z,96712.69
2023-04-01T06:25:25.862Z,96700.53
2023-04-01T06:26:49.493Z,96707.38
2023-04-01T06:27:57.993Z,96702.00
2023-04-01T06:29:23.879Z,96704.97
2023-04-01T06:30:53.835Z,96711.38
2023-04-01T06:32:34.539Z,96707.91
2023-04-01T06:34:02.875Z,96718.47
2023-04-01T06:35:22.115Z,96714.63
2023-04-01T06:36:27.875Z,96713.91
2023-04-01T06:38:16.005Z,96721.31
2023-04-01T06:39:41.786Z,96715.94
2023-04-01T06:41:00.537Z,96715.84
2023-04-01T06:42:11.759Z,96718.94
2023-04-01T06:43:14.663Z,96722.25
2023-04-01T06:44:29.401Z,96720.84
2023-04-01T06:45:43.929Z,96720.34
2023-04-01T06:46:55.903Z,96717.00
2023-04-01T06:48:21.701Z,96721.25
2023-04-01T06:49:53.151Z,96720.03
2023-04-01T06:51:24.222Z,96729.88
2023-04-01T06:52:43.800Z,96719.66
2023-04-01T06:53:59.027Z,96728.47
2023-04-01T06:55:39.275Z,96726.03
2023-04-01T06:56:47.818Z,96728.50
2023-04-01T06:57:57.430Z,96724.31
2023-04-01T06:59:08.090Z,96730.81
2023-04-01T07:00:20.637Z,96730.00
2023-04-01T07:01:38.718Z,96725.22
2023-04-01T07:03:00.038Z,96730.31
2023-04-01T07:04:19.376Z,96729.81
2023-04-01T07:05:24.544Z,96729.38
2023-04-01T07:06:36.648Z,96724.00
2023-04-01T07:07:54.423Z,96726.94
2023-04-01T07:09:05.602Z,96727.44
2023-04-01T07:10:18.884Z,96722.25
2023-04-01T07:11:29.619Z,96723.13
2023-04-01T07:12:32.480Z,96719.38
2023-04-01T07:13:53.863Z,96729.84
2023-04-01T07:15:02.993Z,96732.88
2023-04-01T07:16:27.333Z,96717.91
2023-04-01T07:17:35.237Z,96727.84
2023-04-01T07:19:00.469Z,96721.16
2023-04-01T07:20:15.781Z,96721.41
2023-04-01T07:21:26.899Z,96722.31
2023-04-01T07:22:39.551Z,96742.19
2023-04-01T07:23:47.508Z,96727.03
2023-04-01T07:24:51.434Z,96724.47
2023-04-01T07:25:59.704Z,96725.19
2023-04-01T07:27:03.362Z,96733.09
2023-04-01T07:28:12.734Z,96731.22
2023-04-01T07:29:16.897Z,96738.75
2023-04-01T07:30:23.094Z,96739.47
2023-04-01T07:32:10.478Z,96730.91
2023-04-01T07:33:24.634Z,96736.75
2023-04-01T07:34:57.287Z,96738.09
2023-04-01T07:36:07.393Z,96739.31
2023-04-01T07:37:19.268Z,96744.38
2023-04-01T07:38:41.714Z,96731.44
2023-04-01T07:39:47.293Z,96737.66
2023-04-01T07:41:02.131Z,96732.84
2023-04-01T07:42:38.092Z,96732.34
2023-04-01T07:43:47.159Z,96735.34
2023-04-01T07:45:04.952Z,96732.69
2023-04-01T07:46:32.010Z,96732.69
2023-04-01T07:47:49.813Z,96727.81
2023-04-01T07:49:08.114Z,96720.59
2023-04-01T07:50:26.163Z,96724.00
2023-04-01T07:51:34.683Z,96731.72
2023-04-01T07:53:02.172Z,96732.69
2023-04-01T07:54:14.513Z,96733.22
2023-04-01T07:55:55.617Z,96735.97
2023-04-01T07:57:19.791Z,96728.41
2023-04-01T07:58:37.805Z,96729.66
2023-04-01T08:00:09.120Z,96733.22
2023-04-01T08:01:36.033Z,96731.44
2023-04-01T08:02:48.361Z,96734.28
2023-04-01T08:03:51.600Z,96729.75
2023-04-01T08:05:33.040Z,96736.66
2023-04-01T08:06:57.096Z,96751.22
2023-04-01T08:08:09.974Z,96739.59
2023-04-01T08:09:28.047Z,96743.12
2023-04-01T08:10:49.760Z,96739.06
2023-04-01T08:12:10.889Z,96747.56
2023-04-01T08:13:37.305Z,96737.91
2023-04-01T08:14:55.140Z,96747.66
2023-04-01T08:16:18.745Z,96738.50
2023-04-01T08:17:34.743Z,96742.16
2023-04-01T08:18:43.523Z,96739.00
2023-04-01T08:19:46.879Z,96752.63
2023-04-01T08:20:56.434Z,96743.62
2023-04-01T08:22:05.866Z,96745.06
2023-04-01T08:23:24.953Z,96742.47
2023-04-01T08:24:48.125Z,96742.19
2023-04-01T08:26:06.470Z,96755.59
2023-04-01T08:27:35.691Z,96750.03
2023-04-01T08:28:46.087Z,96739.72
2023-04-01T08:30:02.507Z,96743.97
2023-04-01T08:31:25.088Z,96750.03
2023-04-01T08:32:44.612Z,96747.03
2023-04-01T08:33:50.534Z,96748.53
2023-04-01T08:35:11.228Z,96751.91
2023-04-01T08:36:19.522Z,96744.97
2023-04-01T08:37:30.224Z,96750.41
2023-04-01T08:38:58.624Z,96746.16
2023-04-01T08:40:35.736Z,96744.81
2023-04-01T08:41:57.559Z,96748.91
2023-04-01T08:43:11.186Z,96755.91
2023-04-01T08:44:44.732Z,96749.16
2023-04-01T08:45:47.794Z,96740.03
2023-04-01T08:47:28.056Z,96758.50
2023-04-01T08:49:03.122Z,96747.19
2023-04-01T08:50:24.349Z,96747.59
2023-04-01T08:52:16.996Z,96753.94
2023-04-01T08:53:28.883Z,96744.69
2023-04-01T08:54:40.741Z,96752.47
2023-04-01T08:56:07.645Z,96753.09
2023-04-01T08:57:22.632Z,96759.53
2023-04-01T08:59:02.954Z,96755.53
2023-04-01T09:00:24.319Z,96752.84
2023-04-01T09:01:27.311Z,96758.72
2023-04-01T09:03:11.806Z,96744.63
2023-04-01T09:04:26.953Z,96749.31
2023-04-01T09:05:44.250Z,96749.88
2023-04-01T09:06:55.299Z,96760.97
2023-04-01T09:08:09.841Z,96751.53
2023-04-01T09:09:24.052Z,96744.53
2023-04-01T09:10:51.269Z,96752.34
2023-04-01T09:12:27.627Z,96752.34
2023-04-01T09:13:48.602Z,96756.78
2023-04-01T09:15:15.174Z,96745.06
2023-04-01T09:16:18.225Z,96744.53
2023-04-01T09:17:50.464Z,96742.56
2023-04-01T09:18:59.184Z,96740.53
2023-04-01T09:20:37.497Z,96749.25
2023-04-01T09:22:01.955Z,96749.94
2023-04-01T09:23:43.757Z,96755.97
2023-04-01T09:25:10.313Z,96751.19
2023-04-01T09:26:31.514Z,96745.72
2023-04-01T09:27:51.681Z,96746.94
2023-04-01T09:29:20.538Z,96742.59
2023-04-01T09:30:32.677Z,96754.06
2023-04-01T09:31:53.827Z,96738.06
2023-04-01T09:33:11.849Z,96744.91
2023-04-01T09:34:39.245Z,96742.97
2023-04-01T09:35:50.721Z,96741.38
2023-04-01T09:37:20.248Z,96742.72
2023-04-01T09:38:24.610Z,96743.16
2023-04-01T09:39:37.419Z,96737.75
2023-04-01T09:40:55.583Z,96747.06
2023-04-01T09:42:01.602Z,96741.44
2023-04-01T09:43:15.787Z,96745.72
2023-04-01T09:44:22.100Z,96747.22
2023-04-01T09:45:34.422Z,96756.81
2023-04-01T09:46:56.228Z,96752.72
2023-04-01T09:48:07.526Z,96746.69
2023-04-01T09:49:19.210Z,96758.12
2023-04-01T09:50:58.894Z,96747.94
2023-04-01T09:52:04.765Z,96752.63
2023-04-01T09:53:27.654Z,96754.94
2023-04-01T09:55:01.167Z,96750.25
2023-04-01T09:56:42.333Z,96755.38
2023-04-01T09:57:51.444Z,96742.41
2023-04-01T09:59:19.011Z,96746.87
2023-04-01T10:00:22.545Z,96739.91
2023-04-01T10:01:29.138Z,96747.31
2023-04-01T10:02:54.187Z,96746.50
2023-04-01T10:04:06.000Z,96749.88
2023-04-01T10:05:39.957Z,96745.78
2023-04-01T10:06:52.540Z,96765.88
2023-04-01T10:08:14.010Z,96762.47
2023-04-01T10:09:41.525Z,96759.03
2023-04-01T10:11:15.881Z,96756.09
2023-04-01T10:12:40.288Z,96760.16
2023-04-01T10:14:15.722Z,96758.19
2023-04-01T10:15:41.493Z,96751.03
2023-04-01T10:17:09.473Z,96749.06
2023-04-01T10:18:27.684Z,96757.41
2023-04-01T10:19:56.968Z,96763.00
2023-04-01T10:21:29.006Z,96758.72
2023-04-01T10:23:11.244Z,96752.16
2023-04-01T10:24:38.646Z,96768.03
2023-04-01T10:26:06.606Z,96755.63
2023-04-01T10:27:16.277Z,96756.66
2023-04-01T10:28:22.197Z,96760.28
2023-04-01T10:30:02.818Z,96763.28
2023-04-01T10:31:23.453Z,96759.63
2023-04-01T10:32:54.898Z,96763.63
2023-04-01T10:34:17.436Z,96759.78
2023-04-01T10:35:32.531Z,96759.78
2023-04-01T10:36:48.598Z,96766.53
2023-04-01T10:37:54.744Z,96760.78
2023-04-01T10:39:22.685Z,96763.53
2023-04-01T10:40:28.966Z,96762.19
2023-04-01T10:42:02.731Z,96762.28
2023-04-01T10:43:27.052Z,96752.41
2023-04-01T10:45:08.424Z,96760.66
2023-04-01T10:46:17.769Z,96757.50
2023-04-01T10:47:44.974Z,96755.56
2023-04-01T10:49:22.225Z,96757.44
2023-04-01T10:50:43.904Z,96744.38
2023-04-01T10:52:14.082Z,96749.59
2023-04-01T10:53:43.542Z,96755.25
2023-04-01T10:55:01.960Z,96745.19
2023-04-01T10:56:26.914Z,96759.56
2023-04-01T10:57:49.058Z,96752.19
2023-04-01T10:59:28.439Z,96760.44
2023-04-01T11:00:56.071Z,96751.88
2023-04-01T11:02:17.343Z,96748.47
2023-04-01T11:03:59.449Z,96758.47
2023-04-01T11:05:23.428Z,96753.34
2023-04-01T11:06:54.364Z,96763.25
2023-04-01T11:08:43.322Z,96756.34
2023-04-01T11:10:21.803Z,96751.38
2023-04-01T11:12:02.125Z,96754.28
2023-04-01T11:13:31.192Z,96746.63
2023-04-01T11:14:46.062Z,96747.03
2023-04-01T11:16:07.982Z,96742.66
2023-04-01T11:17:40.026Z,96740.97
2023-04-01T11:19:04.316Z,96751.66
2023-04-01T11:20:28.441Z,96738.63
2023-04-01T11:21:50.917Z,96753.19
2023-04-01T11:23:16.030Z,96752.63
2023-04-01T11:24:21.711Z,96751.78
2023-04-01T11:26:11.935Z,96746.41
2023-04-01T11:27:27.256Z,96751.63
2023-04-01T11:28:54.456Z,96745.25
2023-04-01T11:30:27.442Z,96756.56
2023-04-01T11:31:49.197Z,96735.88
2023-04-01T11:33:13.740Z,96735.88
2023-04-01T11:34:41.338Z,96749.56
2023-04-01T11:35:59.474Z,96749.69
2023-04-01T11:37:21.035Z,96753.34
2023-04-01T11:38:30.266Z,96748.88
2023-04-01T11:40:01.079Z,96751.88
2023-04-01T11:41:23.243Z,96752.28
2023-04-01T11:42:55.612Z,96753.34
2023-04-01T11:44:13.370Z,96756.59
2023-04-01T11:45:34.453Z,96763.38
2023-04-01T11:46:53.099Z,96752.13
2023-04-01T11:48:14.341Z,96753.94
2023-04-01T11:49:38.649Z,96757.69
2023-04-01T11:51:07.754Z,96756.44
2023-04-01T11:52:40.592Z,96758.56
2023-04-01T11:53:54.025Z,96765.62
2023-04-01T11:55:21.593Z,96768.25
2023-04-01T11:56:50.180Z,96764.13
2023-04-01T11:58:13.169Z,96765.03
2023-04-01T11:59:16.166Z,96768.28
2023-04-01T12:01:07.005Z,96760.47
2023-04-01T12:02:25.780Z,96764.75
2023-04-01T12:03:57.006Z,96757.19
2023-04-01T12:05:25.893Z,96756.56
2023-04-01T12:06:56.867Z,96755.31
2023-04-01T12:08:14.864Z,96750.91
2023-04-01T12:09:47.321Z,96757.34
2023-04-01T12:10:59.439Z,96750.38
2023-04-01T12:12:29.370Z,96755.75
2023-04-01T12:13:45.813Z,96757.22
2023-04-01T12:15:01.864Z,96759.56
2023-04-01T12:16:24.251Z,96763.38
2023-04-01T12:17:46.588Z,96755.44
2023-04-01T12:19:19.130Z,96759.66
2023-04-01T12:20:27.919Z,96760.13
2023-04-01T12:21:39.877Z,96757.66
2023-04-01T12:23:03.409Z,96758.97
2023-04-01T12:24:31.492Z,96770.59
2023-04-01T12:25:46.499Z,96780.16
2023-04-01T12:26:49.423Z,96771.59
2023-04-01T12:28:04.640Z,96768.63
2023-04-01T12:29:25.831Z,96765.66
2023-04-01T12:30:38.921Z,96758.84
2023-04-01T12:31:58.196Z,96759.44
2023-04-01T12:33:37.288Z,96769.34
2023-04-01T12:35:00.196Z,96786.03
2023-04-01T12:36:21.432Z,96761.13
2023-04-01T12:38:05.765Z,96768.75
2023-04-01T12:39:32.894Z,96779.38
2023-04-01T12:40:39.047Z,96770.41
2023-04-01T12:41:57.423Z,96771.31
2023-04-01T12:43:27.418Z,96765.12
2023-04-01T12:44:36.758Z,96756.31
2023-04-01T12:46:08.873Z,96768.31
2023-04-01T12:47:39.776Z,96763.00
2023-04-01T12:49:00.954Z,96761.66
2023-04-01T12:50:33.439Z,96758.50
2023-04-01T12:51:39.258Z,96766.94
2023-04-01T12:53:04.464Z,96758.97
2023-04-01T12:54:27.411Z,96759.31
2023-04-01T12:55:53.953Z,96761.25
2023-04-01T12:57:24.644Z,96769.09
2023-04-01T12:58:58.769Z,96760.88
2023-04-01T13:00:12.988Z,96756.81
2023-04-01T13:02:01.091Z,96753.47
2023-04-01T13:03:07.620Z,96755.78
2023-04-01T13:04:25.246Z,96756.66
2023-04-01T13:06:09.772Z,96751.44
2023-04-01T13:07:33.942Z,96748.84
2023-04-01T13:08:53.980Z,96754.50
2023-04-01T13:10:16.345Z,96746.97
2023-04-01T13:11:44.669Z,96735.09
2023-04-01T13:12:53.730Z,96757.50
2023-04-01T13:14:25.004Z,96748.31
2023-04-01T13:15:42.604Z,96746.78
2023-04-01T13:17:05.057Z,96740.31
2023-04-01T13:18:47.159Z,96756.31
2023-04-01T13:20:05.747Z,96748.25
2023-04-01T13:21:28.236Z,96749.28
2023-04-01T13:23:02.079Z,96746.34
2023-04-01T13:24:45.668Z,96744.19
2023-04-01T13:26:14.820Z,96747.91
2023-04-01T13:27:20.990Z,96758.19
2023-04-01T13:28:29.224Z,96753.19
2023-04-01T13:29:41.412Z,96746.94
2023-04-01T13:31:06.182Z,96757.00
2023-04-01T13:33:48.202Z,96756.84
2023-04-01T13:35:29.827Z,96759.75
2023-04-01T13:36:44.885Z,96762.31
2023-04-01T13:37:56.452Z,96761.47
2023-04-01T13:39:11.653Z,96758.56
2023-04-01T13:40:36.701Z,96770.94
2023-04-01T13:41:45.771Z,96791.56
2023-04-01T13:42:52.302Z,96777.53
2023-04-01T13:44:11.119Z,96782.13
2023-04-01T13:45:20.738Z,96781.06
2023-04-01T13:46:35.928Z,96788.34
2023-04-01T13:47:49.271Z,96784.66
2023-04-01T13:49:15.475Z,96785.53
2023-04-01T13:50:40.346Z,96785.28
2023-04-01T13:52:54.754Z,96792.56
2023-04-01T13:54:16.614Z,96797.75
2023-04-01T13:55:29.719Z,96797.13
2023-04-01T13:56:44.050Z,96796.72
2023-04-01T13:58:11.527Z,96795.25
2023-04-01T13:59:23.420Z,96793.66
2023-04-01T14:00:52.740Z,96796.19
2023-04-01T14:02:16.766Z,96792.87
2023-04-01T14:03:40.433Z,96790.91
2023-04-01T14:05:02.263Z,96792.63
2023-04-01T14:06:14.360Z,96787.81
2023-04-01T14:08:08.091Z,96780.25
2023-04-01T14:11:34.583Z,96776.37
2023-04-01T14:13:14.146Z,96774.81
2023-04-01T14:14:48.034Z,96774.66
2023-04-01T14:16:15.097Z,96770.37
2023-04-01T14:17:39.803Z,96764.25
2023-04-01T14:19:07.989Z,96771.72
2023-04-01T14:20:29.341Z,96766.16
2023-04-01T14:22:23.146Z,96766.22
2023-04-01T14:23:48.365Z,96759.72
2023-04-01T14:25:02.983Z,96758.22
2023-04-01T14:26:47.477Z,96765.72
2023-04-01T14:28:11.162Z,96767.91
2023-04-01T14:29:32.732Z,96756.59
2023-04-01T14:30:48.521Z,96755.75
2023-04-01T14:32:04.236Z,96756.28
2023-04-01T14:33:44.607Z,96751.91
2023-04-01T14:35:13.486Z,96751.59